Time;durP1;ratioP1;P1;durP2;ratioP2;P2;SDS_P1;SDS_P2;PMS_P1;PMS_P2;Temp;Humidity;BMP_temperature;BMP_pressure;BME280_temperature;BME280_humidity;BME280_pressure;Samples;Min_cycle;Max_cycle;Signal;HPM_P1;HPM_P2
2022/08/05 00:00:17;;;;;;;;;5.33;4.00;;;;;21.44;60.11;101256.63;6153329;23;46234;-82
2022/08/05 00:02:43;;;;;;;;;6.00;4.00;;;;;21.26;60.58;101229.63;6128035;23;45508;-81
2022/08/05 00:05:09;;;;;;;;;6.00;5.00;;;;;21.23;60.85;101213.69;6127835;23;45246;-82
2022/08/05 00:07:37;;;;;;;;;3.00;2.33;;;;;21.09;61.50;101192.81;6126923;23;45294;-81
2022/08/05 00:10:04;;;;;;;;;4.67;2.67;;;;;21.06;61.01;101176.91;6154151;23;45681;-81
2022/08/05 00:12:32;;;;;;;;;2.00;2.00;;;;;20.97;60.39;101217.41;6154784;23;45370;-81
2022/08/05 00:14:57;;;;;;;;;4.00;2.00;;;;;20.91;60.11;101261.34;6153955;23;45485;-81
2022/08/05 00:17:22;;;;;;;;;3.33;3.33;;;;;20.90;59.92;101310.47;6155085;23;45266;-86
2022/08/05 00:19:48;;;;;;;;;2.33;1.67;;;;;20.87;60.39;101329.28;6129593;23;47040;-86
2022/08/05 00:22:13;;;;;;;;;4.67;2.67;;;;;20.87;60.31;101364.09;6157443;23;45370;-86
2022/08/05 00:24:39;;;;;;;;;4.00;3.00;;;;;20.90;60.27;101398.81;6131369;23;45260;-86
2022/08/05 00:27:05;;;;;;;;;5.67;3.67;;;;;20.88;59.90;101383.72;6128667;23;45607;-86
2022/08/05 00:29:31;;;;;;;;;3.00;2.33;;;;;20.83;60.42;101311.63;6131191;23;47259;-86
2022/08/05 00:31:56;;;;;;;;;5.67;4.00;;;;;20.80;60.58;101295.69;6180807;23;45203;-87
2022/08/05 00:34:22;;;;;;;;;3.67;3.67;;;;;20.74;60.37;101287.00;6181268;23;45199;-86
2022/08/05 00:36:47;;;;;;;;;3.67;3.67;;;;;20.80;60.20;101260.03;6131167;23;45171;-87
2022/08/05 00:39:12;;;;;;;;;3.33;3.33;;;;;20.74;60.52;101303.91;6181106;23;47005;-86
2022/08/05 00:41:38;;;;;;;;;3.67;3.33;;;;;20.70;59.96;101398.63;6131188;23;45147;-86
2022/08/05 00:44:03;;;;;;;;;3.67;3.67;;;;;20.74;60.12;101391.34;6131359;23;45249;-86
2022/08/05 00:46:29;;;;;;;;;3.00;3.00;;;;;20.58;60.59;101335.75;6131073;23;45677;-88
2022/08/05 00:48:54;;;;;;;;;4.67;4.67;;;;;20.64;60.73;101308.75;6131434;23;47050;-84
2022/08/05 00:51:20;;;;;;;;;4.00;2.33;;;;;20.64;60.84;101372.09;6181289;23;45217;-87
2022/08/05 00:53:46;;;;;;;;;4.00;3.00;;;;;20.57;60.53;101327.75;6131766;23;45346;-86
2022/08/05 00:56:14;;;;;;;;;3.00;3.00;;;;;20.53;60.70;101297.53;6130836;23;45447;-87
2022/08/05 00:58:39;;;;;;;;;4.33;4.00;;;;;20.49;60.64;101293.22;6158060;23;45186;-86
2022/08/05 01:01:05;;;;;;;;;2.33;2.00;;;;;20.54;60.48;101309.16;6181245;23;45151;-88
2022/08/05 01:03:30;;;;;;;;;3.00;3.00;;;;;20.61;61.06;101324.91;6131316;23;45223;-87
2022/08/05 01:05:56;;;;;;;;;4.67;4.67;;;;;20.61;60.64;101332.06;6181190;23;45334;-88
2022/08/05 01:08:21;;;;;;;;;3.00;2.00;;;;;20.51;60.35;101280.66;6131060;23;47039;-86
2022/08/05 01:10:55;;;;;;;;;9.00;5.00;;;;;20.59;60.62;101331.25;6131434;23;45142;-86
2022/08/05 01:13:35;;;;;;;;;3.00;3.00;;;;;20.66;60.61;101327.41;6158045;23;45204;-87
2022/08/05 01:16:03;;;;;;;;;3.00;3.00;;;;;20.65;60.62;101328.34;6131397;23;46034;-87
2022/08/05 01:18:39;;;;;;;;;4.00;2.00;;;;;20.53;60.70;101310.03;6130794;23;46141;-87
2022/08/05 01:21:32;;;;;;;;;4.00;3.33;;;;;20.63;60.22;101338.22;6131046;23;45606;-87
2022/08/05 01:24:19;;;;;;;;;6.00;4.00;;;;;20.61;60.32;101338.31;6131076;23;45361;-87
2022/08/05 01:27:12;;;;;;;;;3.67;3.67;;;;;20.58;60.38;101314.34;6130877;23;45139;-87
2022/08/05 01:29:44;;;;;;;;;3.00;3.00;;;;;20.54;60.68;101320.72;6131249;23;46305;-88
2022/08/05 01:32:15;;;;;;;;;3.00;3.00;;;;;20.52;60.40;101301.13;6131144;23;45244;-87
2022/08/05 01:35:05;;;;;;;;;3.33;3.00;;;;;20.44;60.48;101271.09;6130687;23;45361;-87
2022/08/05 01:37:48;;;;;;;;;2.67;2.67;;;;;20.40;60.68;101253.44;6130424;23;45524;-88
2022/08/05 01:40:16;;;;;;;;;4.67;3.33;;;;;20.47;60.75;101252.28;6130462;23;47269;-86
2022/08/05 01:42:43;;;;;;;;;1.00;1.00;;;;;20.46;60.94;101234.50;6130887;23;45210;-86
2022/08/05 01:45:11;;;;;;;;;6.00;4.33;;;;;20.48;61.10;101230.81;6157493;23;45268;-85
2022/08/05 01:47:37;;;;;;;;;5.25;4.00;;;;;20.48;61.37;101233.50;6130648;23;45197;-86
2022/08/05 01:50:14;;;;;;;;;5.00;3.67;;;;;20.48;60.92;101265.59;6129669;23;46832;-87
2022/08/05 01:52:42;;;;;;;;;4.33;4.33;;;;;20.47;60.96;101269.22;6130507;23;45330;-88
2022/08/05 01:55:11;;;;;;;;;3.00;3.00;;;;;20.49;60.60;101286.06;6130697;23;45191;-87
2022/08/05 01:57:42;;;;;;;;;4.33;3.67;;;;;20.53;60.73;101315.38;6130395;23;45169;-87
2022/08/05 02:00:09;;;;;;;;;2.67;2.67;;;;;20.53;60.45;101292.19;6130314;23;47058;-86
2022/08/05 02:02:38;;;;;;;;;3.33;3.33;;;;;20.48;60.93;101246.88;6130300;23;45200;-86
2022/08/05 02:05:07;;;;;;;;;4.67;4.00;;;;;20.47;61.04;101230.88;6129989;23;45124;-86
2022/08/05 02:07:34;;;;;;;;;4.00;4.00;;;;;20.43;61.86;101221.22;6129875;23;45538;-87
2022/08/05 02:10:01;;;;;;;;;5.00;4.00;;;;;20.48;61.83;101227.28;6132001;23;46725;-87
2022/08/05 02:12:37;;;;;;;;;6.00;4.33;;;;;20.50;62.00;101265.53;6130899;23;45203;-87
2022/08/05 02:15:16;;;;;;;;;5.33;4.33;;;;;20.51;61.62;101279.81;6158516;23;45196;-87
2022/08/05 02:17:49;;;;;;;;;3.33;3.33;;;;;20.44;61.82;101269.31;6131866;23;45591;-87
2022/08/05 02:20:20;;;;;;;;;5.00;4.33;;;;;20.29;62.19;101245.81;6131383;23;47801;-86
2022/08/05 02:22:48;;;;;;;;;3.00;3.00;;;;;20.37;62.23;101256.19;6131501;23;45250;-87
2022/08/05 02:25:23;;;;;;;;;4.33;4.00;;;;;20.41;62.24;101271.22;6131792;23;45459;-87
2022/08/05 02:27:50;;;;;;;;;4.00;2.00;;;;;20.39;62.01;101292.66;6131234;23;45715;-87
2022/08/05 02:30:17;;;;;;;;;4.33;4.33;;;;;20.37;62.23;101310.59;6131384;23;46801;-87
2022/08/05 02:32:48;;;;;;;;;3.00;3.00;;;;;20.30;61.48;101305.50;6131626;23;45657;-87
2022/08/05 02:35:18;;;;;;;;;3.67;3.67;;;;;20.26;61.68;101310.06;6131882;23;45258;-87
2022/08/05 02:37:46;;;;;;;;;6.00;4.00;;;;;20.20;61.44;101316.50;6131872;23;45390;-87
2022/08/05 02:40:15;;;;;;;;;4.33;4.00;;;;;20.14;61.92;101322.06;6131358;23;47999;-87
2022/08/05 02:42:42;;;;;;;;;4.00;4.00;;;;;20.13;61.63;101336.38;6131074;23;45374;-87
2022/08/05 02:45:08;;;;;;;;;4.00;4.00;;;;;20.07;61.31;101316.97;6131862;23;45279;-87
2022/08/05 02:47:36;;;;;;;;;3.00;3.00;;;;;19.97;61.24;101295.06;6131985;23;45369;-87
2022/08/05 02:50:05;;;;;;;;;5.00;4.00;;;;;19.94;61.82;101269.31;6131395;23;46509;-87
2022/08/05 02:52:32;;;;;;;;;5.25;4.75;;;;;19.93;62.11;101247.97;6131369;23;45338;-88
2022/08/05 02:54:59;;;;;;;;;5.00;4.33;;;;;19.98;62.10;101233.50;6131185;23;45388;-88
2022/08/05 02:57:26;;;;;;;;;4.00;4.00;;;;;20.07;62.14;101228.78;6131082;23;45450;-86
2022/08/05 03:00:05;;;;;;;;;;;;;;;;;;;;;
2022/08/05 03:02:40;;;;;;;;;4.33;4.00;;;;;20.05;62.15;101245.75;6156778;23;71941;-87
2022/08/05 03:05:11;;;;;;;;;4.50;4.50;;;;;20.07;62.13;101276.88;6131288;23;45343;-88
2022/08/05 03:07:38;;;;;;;;;3.00;3.00;;;;;20.08;62.98;101290.22;6130917;23;45465;-88
2022/08/05 03:10:04;;;;;;;;;5.33;4.00;;;;;20.10;62.64;101298.16;6131364;23;47056;-87
2022/08/05 03:12:30;;;;;;;;;4.00;4.00;;;;;20.04;62.22;101291.22;6131082;23;45295;-87
2022/08/05 03:14:56;;;;;;;;;5.00;5.00;;;;;19.92;62.42;101281.84;6131471;23;45388;-87
2022/08/05 03:17:21;;;;;;;;;4.67;4.33;;;;;19.95;62.88;101278.19;6131315;23;45613;-87
2022/08/05 03:19:47;;;;;;;;;5.67;5.33;;;;;19.98;62.38;101286.97;6130661;23;48296;-87
2022/08/05 03:22:13;;;;;;;;;3.33;2.00;;;;;19.82;62.39;101270.59;6131792;23;45265;-88
2022/08/05 03:24:40;;;;;;;;;3.00;3.00;;;;;19.81;62.49;101274.19;6131729;23;45264;-88
2022/08/05 03:27:06;;;;;;;;;3.00;3.00;;;;;19.78;62.55;101266.28;6130817;23;45203;-88
2022/08/05 03:29:32;;;;;;;;;3.33;3.00;;;;;19.87;62.38;101278.44;6131410;23;47528;-87
2022/08/05 03:31:57;;;;;;;;;3.00;2.67;;;;;19.79;62.71;101265.34;6131341;23;45183;-88
2022/08/05 03:34:24;;;;;;;;;4.00;3.67;;;;;19.80;62.58;101279.56;6131606;23;45328;-87
2022/08/05 03:36:49;;;;;;;;;3.67;3.00;;;;;19.79;63.04;101275.16;6155915;23;46010;-87
2022/08/05 03:39:15;;;;;;;;;3.33;3.00;;;;;19.72;62.79;101260.25;6131275;23;47010;-88
2022/08/05 03:41:40;;;;;;;;;6.33;4.00;;;;;19.86;63.16;101286.50;6131904;23;45293;-88
2022/08/05 03:44:05;;;;;;;;;3.00;3.00;;;;;19.89;62.99;101291.75;6131767;23;45380;-89
2022/08/05 03:46:31;;;;;;;;;5.00;4.00;;;;;19.76;63.23;101270.81;6131346;23;45392;-87
2022/08/05 03:48:57;;;;;;;;;5.33;3.67;;;;;19.82;62.84;101281.28;6131515;23;48133;-87
2022/08/05 03:51:35;;;;;;;;;2.00;2.00;;;;;19.82;62.48;101285.75;6155786;23;45274;-87
2022/08/05 03:54:18;;;;;;;;;3.50;3.50;;;;;19.88;62.53;101290.00;6130873;23;45159;-87
2022/08/05 03:56:46;;;;;;;;;5.50;5.50;;;;;19.77;62.68;101275.22;6131460;23;45351;-88
2022/08/05 03:59:27;;;;;;;;;3.33;3.33;;;;;19.78;62.35;101268.06;6131481;23;47212;-87
2022/08/05 04:01:55;;;;;;;;;3.50;2.75;;;;;19.97;62.62;101309.28;6130874;23;45211;-88
2022/08/05 04:04:22;;;;;;;;;4.50;3.50;;;;;19.88;62.41;101290.00;6131411;23;45295;-87
2022/08/05 04:06:49;;;;;;;;;5.33;5.33;;;;;19.90;62.55;101293.50;6130859;23;45290;-87
2022/08/05 04:09:16;;;;;;;;;4.00;4.00;;;;;19.96;62.59;101304.00;6131366;23;46924;-88
2022/08/05 04:11:42;;;;;;;;;5.33;4.33;;;;;19.98;62.63;101288.78;6131465;23;45398;-88
2022/08/05 04:14:09;;;;;;;;;3.00;3.00;;;;;19.88;62.55;101280.19;6131559;23;45433;-87
2022/08/05 04:16:34;;;;;;;;;7.00;4.00;;;;;20.01;62.27;101294.88;6131665;23;45486;-88
2022/08/05 04:19:01;;;;;;;;;5.00;4.00;;;;;19.93;62.23;101282.72;6131098;23;47353;-88
2022/08/05 04:21:27;;;;;;;;;6.00;3.00;;;;;19.99;61.69;101291.41;6131497;23;45311;-88
2022/08/05 04:23:52;;;;;;;;;4.00;4.00;;;;;19.87;62.06;101273.09;6131187;23;45220;-88
2022/08/05 04:26:18;;;;;;;;;5.33;3.00;;;;;19.85;61.94;101279.44;6130806;23;45230;-87
2022/08/05 04:28:43;;;;;;;;;7.00;5.67;;;;;19.84;61.69;101281.22;6131402;23;46987;-86
2022/08/05 04:31:09;;;;;;;;;5.00;5.00;;;;;19.94;61.79;101295.13;6155943;23;45111;-87
2022/08/05 04:33:34;;;;;;;;;5.33;4.33;;;;;19.81;61.58;101281.34;6131423;23;45445;-87
2022/08/05 04:36:00;;;;;;;;;6.00;5.67;;;;;19.75;62.31;101270.84;6131796;23;45339;-88
2022/08/05 04:38:25;;;;;;;;;4.00;4.00;;;;;19.83;62.30;101288.38;6131220;23;47236;-88
2022/08/05 04:40:51;;;;;;;;;3.00;3.00;;;;;19.70;62.15;101270.13;6131230;23;45287;-88
2022/08/05 04:43:16;;;;;;;;;5.00;4.00;;;;;19.70;61.94;101275.47;6131328;23;45438;-87
2022/08/05 04:45:42;;;;;;;;;3.67;3.67;;;;;19.60;61.81;101272.19;6131344;23;45416;-87
2022/08/05 04:48:14;;;;;;;;;6.00;6.00;;;;;19.67;62.20;101297.81;6131302;23;47043;-88
2022/08/05 04:50:46;;;;;;;;;2.67;2.67;;;;;19.72;61.97;101300.31;6131398;23;45267;-86
2022/08/05 04:53:18;;;;;;;;;3.67;3.33;;;;;19.45;62.25;101265.53;6131406;23;45224;-87
2022/08/05 04:55:44;;;;;;;;;3.67;3.67;;;;;19.71;62.39;101309.28;6131266;23;45381;-87
2022/08/05 04:58:12;;;;;;;;;5.67;4.67;;;;;19.52;62.46;101279.59;6158325;23;46505;-88
2022/08/05 05:00:38;;;;;;;;;2.33;2.33;;;;;19.60;62.58;101293.56;6132040;23;45163;-88
2022/08/05 05:03:06;;;;;;;;;2.33;2.00;;;;;19.74;62.83;101323.41;6131843;23;45195;-88
2022/08/05 05:05:32;;;;;;;;;4.00;2.33;;;;;19.60;62.38;101302.44;6132683;23;45372;-88
2022/08/05 05:08:03;;;;;;;;;4.33;4.33;;;;;19.65;62.25;101304.13;6132324;23;47297;-88
2022/08/05 05:10:30;;;;;;;;;3.00;3.00;;;;;19.74;62.72;101325.22;6133404;23;45280;-89
2022/08/05 05:12:56;;;;;;;;;7.00;5.00;;;;;19.55;62.37;101300.84;6133828;23;44759;-88
2022/08/05 05:15:22;;;;;;;;;4.00;4.00;;;;;19.72;62.26;101335.06;6135617;23;45495;-88
2022/08/05 05:17:47;;;;;;;;;6.00;6.00;;;;;19.60;62.90;101322.94;6134646;23;47065;-88
2022/08/05 05:20:13;;;;;;;;;4.50;4.50;;;;;19.76;62.61;101350.09;6136416;23;45276;-88
2022/08/05 05:22:39;;;;;;;;;6.00;4.00;;;;;19.77;62.54;101351.81;6139766;23;45267;-88
2022/08/05 05:25:05;;;;;;;;;5.67;5.67;;;;;19.77;62.59;101358.03;6137757;23;45172;-86
2022/08/05 05:27:33;;;;;;;;;7.67;5.00;;;;;19.57;62.82;101328.41;6136034;23;47458;-85
2022/08/05 05:29:58;;;;;;;;;6.00;6.00;;;;;19.76;62.91;101356.31;6132671;23;45532;-84
2022/08/05 05:32:24;;;;;;;;;5.67;5.00;;;;;19.74;62.42;101360.81;6146717;23;44707;-85
2022/08/05 05:34:49;;;;;;;;;5.25;5.00;;;;;19.70;62.45;101360.94;6148122;23;44861;-84
2022/08/05 05:37:15;;;;;;;;;4.67;4.67;;;;;19.65;62.21;101349.53;6146427;23;47156;-84
2022/08/05 05:39:40;;;;;;;;;6.00;5.00;;;;;19.67;62.50;101371.72;6171503;23;45281;-83
2022/08/05 05:42:06;;;;;;;;;5.00;5.00;;;;;19.53;62.54;101356.97;6145578;23;45373;-84
2022/08/05 05:44:31;;;;;;;;;5.25;5.25;;;;;19.50;62.29;101367.75;6147624;23;45319;-84
2022/08/05 05:46:57;;;;;;;;;6.33;6.33;;;;;19.44;62.41;101356.41;6171616;23;46202;-85
2022/08/05 05:49:22;;;;;;;;;7.00;5.00;;;;;19.38;62.74;101365.50;6131769;23;45487;-84
2022/08/05 05:51:48;;;;;;;;;5.00;5.00;;;;;19.42;63.26;101369.78;6132323;23;45803;-83
2022/08/05 05:54:13;;;;;;;;;6.33;6.33;;;;;19.47;63.30;101380.34;6132119;23;45473;-84
2022/08/05 05:56:38;;;;;;;;;5.00;5.00;;;;;19.49;63.08;101378.50;6130995;23;48089;-85
2022/08/05 05:59:05;;;;;;;;;6.33;5.00;;;;;19.49;62.80;101391.88;6131264;23;45660;-84
2022/08/05 06:01:36;;;;;;;;;7.00;6.33;;;;;19.17;63.18;101340.31;6131258;23;45198;-83
2022/08/05 06:04:01;;;;;;;;;4.33;4.33;;;;;19.46;63.60;101398.19;6130620;23;45485;-85
2022/08/05 06:06:27;;;;;;;;;6.00;4.00;;;;;19.47;63.28;101399.91;6130438;23;46940;-84
2022/08/05 06:08:52;;;;;;;;;8.75;6.00;;;;;19.38;63.37;101381.50;6131557;23;45740;-84
2022/08/05 06:11:18;;;;;;;;;6.00;5.00;;;;;19.38;63.37;101392.19;6130941;23;45587;-84
2022/08/05 06:13:43;;;;;;;;;6.75;6.75;;;;;19.47;63.51;101401.72;6130990;23;45818;-84
2022/08/05 06:16:08;;;;;;;;;7.25;6.00;;;;;19.41;63.18;101397.44;6131201;23;47175;-84
2022/08/05 06:18:34;;;;;;;;;8.50;5.25;;;;;19.37;62.91;101393.09;6130694;23;45368;-84
2022/08/05 06:21:03;;;;;;;;;7.25;4.75;;;;;19.39;63.14;101396.59;6131247;23;45561;-85
2022/08/05 06:23:29;;;;;;;;;7.50;6.00;;;;;19.40;63.38;101406.34;6157505;23;45108;-84
2022/08/05 06:25:54;;;;;;;;;7.00;6.00;;;;;19.37;63.38;101399.31;6130619;23;48013;-85
2022/08/05 06:28:20;;;;;;;;;4.25;4.25;;;;;19.33;63.10;101396.78;6130880;23;45440;-87
2022/08/05 06:30:45;;;;;;;;;7.50;7.50;;;;;19.42;63.34;101411.66;6131211;23;45405;-85
2022/08/05 06:33:13;;;;;;;;;4.00;4.00;;;;;19.51;63.28;101422.06;6157555;23;45596;-85
2022/08/05 06:35:38;;;;;;;;;7.00;6.25;;;;;19.42;63.35;101399.16;6130498;23;47438;-85
2022/08/05 06:38:04;;;;;;;;;8.25;8.25;;;;;19.44;63.04;101401.81;6130727;23;45342;-85
2022/08/05 06:40:30;;;;;;;;;7.00;6.00;;;;;19.40;62.82;101398.34;6131209;23;45445;-84
2022/08/05 06:42:56;;;;;;;;;6.67;5.67;;;;;19.45;63.26;101414.22;6157918;23;45170;-84
2022/08/05 06:45:22;;;;;;;;;7.25;6.25;;;;;19.48;63.32;101423.00;6130209;23;46992;-84
2022/08/05 06:47:47;;;;;;;;;5.75;5.00;;;;;19.41;63.22;101405.44;6157906;23;45242;-85
2022/08/05 06:50:13;;;;;;;;;6.50;6.50;;;;;19.56;63.13;101422.78;6132190;23;45418;-91
2022/08/05 06:52:38;;;;;;;;;8.75;7.75;;;;;19.38;63.65;101384.19;6137684;23;45268;-92
2022/08/05 06:55:04;;;;;;;;;8.50;8.50;;;;;19.61;63.26;101421.72;6134097;23;47259;-86
2022/08/05 06:57:30;;;;;;;;;4.50;3.25;;;;;19.55;63.52;101411.22;6131018;23;45941;-85
2022/08/05 06:59:55;;;;;;;;;6.50;6.50;;;;;19.64;63.03;101427.91;6157443;23;45436;-84
2022/08/05 07:02:20;;;;;;;;;10.25;7.50;;;;;19.64;62.73;101420.75;6130448;23;45215;-83
2022/08/05 07:04:46;;;;;;;;;7.00;6.00;;;;;19.60;63.13;101416.44;6130210;23;47321;-83
2022/08/05 07:07:11;;;;;;;;;7.50;7.25;;;;;19.68;62.90;101430.47;6156903;23;45330;-81
2022/08/05 07:09:36;;;;;;;;;9.00;7.00;;;;;19.69;62.83;101428.66;6157034;23;45227;-81
2022/08/05 07:12:02;;;;;;;;;6.67;6.00;;;;;19.69;63.15;101423.31;6156921;23;45202;-80
2022/08/05 07:17:11;;;;;;;;;5.75;5.75;;;;;19.87;63.00;101438.78;6156893;23;45265;-81
2022/08/05 07:19:37;;;;;;;;;11.75;11.75;;;;;19.94;62.88;101443.03;6156688;23;45381;-80
2022/08/05 07:22:03;;;;;;;;;9.00;9.00;;;;;19.99;62.70;101438.41;6130140;23;45259;-80
2022/08/05 07:24:28;;;;;;;;;6.50;6.50;;;;;20.08;62.82;101447.06;6129956;23;48224;-80
2022/08/05 07:26:54;;;;;;;;;4.25;4.25;;;;;20.12;62.44;101451.38;6156080;23;45276;-81
2022/08/05 07:29:19;;;;;;;;;6.00;5.75;;;;;20.19;62.44;101463.63;6130246;23;45382;-81
2022/08/05 07:31:44;;;;;;;;;10.00;8.25;;;;;20.23;62.42;101454.56;6156913;23;45231;-80
2022/08/05 07:34:10;;;;;;;;;6.50;6.50;;;;;20.27;62.00;101464.25;6129725;23;47322;-80
2022/08/05 07:36:35;;;;;;;;;9.25;7.75;;;;;20.31;61.76;101470.38;6129872;23;45860;-81
2022/08/05 07:39:03;;;;;;;;;6.25;6.25;;;;;20.40;61.48;101464.75;6157222;23;45088;-80
2022/08/05 07:41:29;;;;;;;;;10.00;8.00;;;;;20.42;61.55;101462.88;6130261;23;45391;-81
2022/08/05 07:43:56;;;;;;;;;7.75;6.25;;;;;20.45;61.63;101477.03;6129974;23;47127;-80
2022/08/05 07:46:21;;;;;;;;;7.75;7.75;;;;;20.49;61.39;101475.13;6130183;23;45334;-81
2022/08/05 07:48:47;;;;;;;;;9.75;8.75;;;;;20.55;61.10;101477.63;6130063;23;45365;-80
2022/08/05 07:51:14;;;;;;;;;6.00;6.00;;;;;20.55;60.97;101476.75;6130107;23;45239;-80
2022/08/05 07:53:40;;;;;;;;;8.50;8.00;;;;;20.58;60.83;101472.19;6157041;23;45276;-80
2022/08/05 07:56:05;;;;;;;;;9.25;9.00;;;;;20.62;61.34;101489.00;6130156;23;45215;-80
2022/08/05 07:58:31;;;;;;;;;9.50;7.00;;;;;20.69;61.14;101491.41;6157194;23;45276;-80
2022/08/05 08:00:56;;;;;;;;;7.75;6.75;;;;;20.75;60.79;101500.16;6130214;23;45394;-80
2022/08/05 08:03:22;;;;;;;;;8.50;7.75;;;;;20.81;61.07;101491.91;6129752;23;46856;-81
2022/08/05 08:05:50;;;;;;;;;8.25;7.25;;;;;20.88;60.74;101488.13;6156137;23;45173;-79
2022/08/05 08:08:16;;;;;;;;;7.25;6.25;;;;;21.00;60.44;101503.72;6156308;23;45397;-79
2022/08/05 08:10:41;;;;;;;;;8.50;7.75;;;;;21.05;59.98;101504.44;6156791;23;45335;-80
2022/08/05 08:13:10;;;;;;;;;9.00;8.00;;;;;21.06;60.55;101505.31;6129441;23;45719;-81
2022/08/05 08:15:35;;;;;;;;;7.25;6.00;;;;;21.10;60.06;101515.88;6129743;23;45180;-79
2022/08/05 08:18:00;;;;;;;;;11.25;10.25;;;;;21.15;59.90;101524.63;6129707;23;45330;-80
2022/08/05 08:20:26;;;;;;;;;7.00;6.00;;;;;21.17;60.03;101518.31;6157421;23;45445;-85
2022/08/05 08:22:58;;;;;;;;;8.75;8.75;;;;;21.25;59.87;101524.28;6130359;23;46983;-86
2022/08/05 08:25:25;;;;;;;;;9.00;8.00;;;;;21.32;60.04;101523.16;6156371;23;45282;-84
2022/08/05 08:27:51;;;;;;;;;8.25;7.25;;;;;21.38;59.40;101522.94;6129874;23;45386;-85
2022/08/05 08:30:17;;;;;;;;;6.00;5.00;;;;;21.48;59.28;101521.69;6130471;23;45289;-87
2022/08/05 08:32:43;;;;;;;;;7.00;7.00;;;;;21.53;59.29;101516.16;6130667;23;46855;-89
2022/08/05 08:35:09;;;;;;;;;5.00;5.00;;;;;21.58;58.83;101514.19;6157054;23;45242;-84
2022/08/05 08:37:34;;;;;;;;;6.00;6.00;;;;;21.72;59.10;101530.63;6130467;23;45368;-86
2022/08/05 08:40:00;;;;;;;;;6.67;6.67;;;;;21.82;58.80;101536.50;6129720;23;45345;-84
2022/08/05 08:42:27;;;;;;;;;5.67;5.67;;;;;21.86;58.03;101531.91;6130475;23;47075;-85
2022/08/05 08:44:54;;;;;;;;;6.67;5.67;;;;;21.94;58.15;101533.34;6130272;23;45444;-86
2022/08/05 08:47:25;;;;;;;;;6.33;6.33;;;;;22.01;57.91;101526.81;6156785;23;45246;-87
2022/08/05 08:49:52;;;;;;;;;6.25;5.50;;;;;22.19;57.60;101545.84;6130711;23;45480;-88
2022/08/05 08:52:38;;;;;;;;;8.75;5.75;;;;;22.21;57.62;101536.81;6130394;23;47340;-87
2022/08/05 08:55:04;;;;;;;;;6.33;5.00;;;;;22.21;57.33;101534.13;6130154;23;45613;-89
2022/08/05 08:57:29;;;;;;;;;6.50;5.75;;;;;22.30;57.09;101542.75;6131072;23;45200;-86
2022/08/05 08:59:57;;;;;;;;;5.00;5.00;;;;;22.34;56.70;101544.34;6131643;23;45164;-88
2022/08/05 09:02:24;;;;;;;;;7.00;7.00;;;;;22.34;55.88;101544.34;6132119;23;47493;-88
2022/08/05 09:04:49;;;;;;;;;4.00;4.00;;;;;22.42;55.82;101550.28;6133585;23;46070;-88
2022/08/05 09:07:15;;;;;;;;;7.00;7.00;;;;;22.47;55.47;101548.31;6133239;23;45360;-89
2022/08/05 09:09:41;;;;;;;;;7.67;5.33;;;;;22.60;55.53;101556.72;6132762;23;45523;-88
2022/08/05 09:12:08;;;;;;;;;4.33;3.33;;;;;22.62;55.31;101549.50;6131399;23;45400;-90
2022/08/05 09:14:34;;;;;;;;;8.67;7.67;;;;;22.67;55.11;101547.50;6131033;23;45326;-88
2022/08/05 09:17:02;;;;;;;;;4.33;4.33;;;;;22.79;55.64;101548.78;6157683;23;45088;-89
2022/08/05 09:19:28;;;;;;;;;8.67;6.33;;;;;22.82;55.40;101551.34;6131934;23;45382;-90
2022/08/05 09:21:54;;;;;;;;;7.00;7.00;;;;;22.94;54.98;101549.97;6131520;23;45993;-89
2022/08/05 09:24:19;;;;;;;;;6.25;6.25;;;;;23.00;54.46;101555.09;6131090;23;45504;-88
2022/08/05 09:26:55;;;;;;;;;8.75;8.25;;;;;23.05;54.05;101545.03;6156938;23;45270;-89
2022/08/05 09:29:20;;;;;;;;;9.00;7.00;;;;;23.15;54.52;101548.19;6130246;23;45876;-86
2022/08/05 09:32:04;;;;;;;;;7.00;5.75;;;;;23.38;53.81;101566.00;6129852;23;48015;-87
2022/08/05 09:34:54;;;;;;;;;7.00;5.67;;;;;23.49;53.38;101551.13;6158145;23;45129;-90
2022/08/05 09:37:22;;;;;;;;;7.67;7.67;;;;;23.57;53.29;101548.09;6130672;23;45207;-88
2022/08/05 09:39:48;;;;;;;;;10.00;9.50;;;;;23.71;52.84;101556.47;6156861;23;45256;-86
2022/08/05 09:42:19;;;;;;;;;9.00;6.25;;;;;23.77;52.17;101548.09;6129977;23;46859;-89
2022/08/05 09:44:46;;;;;;;;;7.00;7.00;;;;;23.88;52.33;101552.13;6156651;23;45284;-86
2022/08/05 09:47:26;;;;;;;;;9.75;8.00;;;;;23.96;52.44;101558.88;6156976;23;45190;-88
2022/08/05 09:49:54;;;;;;;;;10.33;8.67;;;;;24.05;51.95;101564.75;6130064;23;45495;-88
2022/08/05 09:52:22;;;;;;;;;8.67;8.67;;;;;23.99;51.15;101557.84;6129533;23;47236;-89
2022/08/05 09:55:05;;;;;;;;;8.00;8.00;;;;;23.99;51.27;101558.72;6130058;23;45753;-89
2022/08/05 09:57:32;;;;;;;;;8.50;8.50;;;;;24.07;51.18;101560.19;6156672;23;45255;-89
2022/08/05 10:00:00;;;;;;;;;7.75;7.75;;;;;24.13;51.65;101557.19;6130764;23;45201;-90
2022/08/05 10:02:39;;;;;;;;;10.00;8.67;;;;;24.25;51.59;101563.84;6157216;23;46228;-88
2022/08/05 10:05:08;;;;;;;;;9.00;8.00;;;;;24.37;50.33;101560.53;6130706;23;45310;-87
2022/08/05 10:07:56;;;;;;;;;7.00;7.00;;;;;24.56;50.33;101560.53;6155951;23;45402;-83
2022/08/05 10:10:24;;;;;;;;;7.33;6.67;;;;;24.68;50.13;101565.34;6155276;23;45385;-85
2022/08/05 10:12:56;;;;;;;;;9.33;8.33;;;;;24.79;49.35;101557.59;6129177;23;47295;-84
2022/08/05 10:15:28;;;;;;;;;11.00;9.00;;;;;24.98;49.00;101560.22;6129311;23;45305;-85
2022/08/05 10:18:10;;;;;;;;;10.00;10.00;;;;;25.11;48.55;101546.13;6128794;23;45213;-85
2022/08/05 10:20:47;;;;;;;;;12.50;12.00;;;;;25.36;48.82;101556.50;6129223;23;45525;-84
2022/08/05 10:23:17;;;;;;;;;10.75;10.75;;;;;25.58;48.36;101554.44;6128580;23;48284;-83
2022/08/05 10:25:43;;;;;;;;;8.33;8.00;;;;;25.77;47.05;101548.00;6128161;23;45756;-85
2022/08/05 10:28:08;;;;;;;;;8.33;7.33;;;;;25.98;47.26;101556.78;6155714;23;45402;-86
2022/08/05 10:30:35;;;;;;;;;10.00;8.00;;;;;26.11;46.63;101545.22;6129890;23;45387;-82
2022/08/05 10:33:02;;;;;;;;;9.00;8.00;;;;;26.36;45.76;101551.97;6156706;23;45618;-82
2022/08/05 10:35:27;;;;;;;;;7.00;7.00;;;;;26.52;46.05;101546.56;6156838;23;45195;-82
2022/08/05 10:37:54;;;;;;;;;9.00;7.33;;;;;26.55;45.42;101541.84;6156932;23;45223;-80
2022/08/05 10:40:49;;;;;;;;;6.33;6.33;;;;;26.64;44.65;101550.38;6130190;23;45176;-80
2022/08/05 10:43:28;;;;;;;;;7.00;7.00;;;;;26.78;43.53;101547.72;6109731;23;46632;-81
2022/08/05 10:45:56;;;;;;;;;4.33;4.33;;;;;26.91;43.40;101553.28;6129653;23;45348;-80
2022/08/05 10:48:33;;;;;;;;;6.67;6.67;;;;;27.13;43.41;101555.56;6129866;23;45202;-80
2022/08/05 10:51:10;;;;;;;;;5.67;5.67;;;;;27.10;43.63;101547.66;6129950;23;45302;-80
2022/08/05 10:53:37;;;;;;;;;7.00;6.67;;;;;27.00;43.71;101567.13;6129231;23;48227;-79
2022/08/05 10:56:06;;;;;;;;;9.00;8.33;;;;;26.82;43.91;101565.53;6156505;23;45297;-80
2022/08/05 10:58:32;;;;;;;;;7.00;7.00;;;;;26.81;44.01;101570.06;6156939;23;45206;-81
2022/08/05 11:00:57;;;;;;;;;12.00;10.00;;;;;26.97;43.63;101567.31;6156559;23;45465;-81
2022/08/05 11:03:23;;;;;;;;;8.00;8.00;;;;;27.09;43.03;101563.00;6155812;23;45538;-81
2022/08/05 11:06:09;;;;;;;;;7.75;7.75;;;;;27.18;42.80;101578.69;6156272;23;45113;-81
2022/08/05 11:08:35;;;;;;;;;7.67;7.67;;;;;27.20;42.58;101567.78;6156372;23;45340;-81
2022/08/05 11:11:33;;;;;;;;;7.00;7.00;;;;;27.09;42.66;101576.53;6156622;23;45196;-81
2022/08/05 11:13:59;;;;;;;;;9.00;6.67;;;;;26.93;42.14;101583.81;6129546;23;46190;-81
2022/08/05 11:16:25;;;;;;;;;5.33;5.33;;;;;26.80;42.41;101584.50;6128608;23;45575;-81
2022/08/05 11:19:28;;;;;;;;;6.67;6.67;;;;;26.79;42.26;101587.31;6129697;23;45228;-81
2022/08/05 11:22:32;;;;;;;;;6.33;6.33;;;;;26.96;42.10;101580.91;6156288;23;45475;-81
2022/08/05 11:25:26;;;;;;;;;7.00;7.00;;;;;27.32;41.63;101587.81;6156225;23;45278;-81
2022/08/05 11:27:51;;;;;;;;;6.33;6.00;;;;;27.39;40.38;101571.09;6156390;23;45268;-81
2022/08/05 11:30:17;;;;;;;;;6.50;6.25;;;;;27.34;40.51;101580.47;6129625;23;45393;-81
2022/08/05 11:32:42;;;;;;;;;8.00;7.00;;;;;27.38;40.35;101587.44;6156399;23;45382;-80
2022/08/05 11:35:46;;;;;;;;;7.00;6.00;;;;;27.52;39.62;101579.34;6156296;23;45323;-80